sensor_id;sensor_type;location;lat;lon;timestamp;pressure;altitude;pressure_sealevel;temperature;humidity
79362;BME280;68830;47.566;19.012;2024-03-22T00:00:23;100253.19;;;12.53;66.42
79362;BME280;68830;47.566;19.012;2024-03-22T00:03:24;100249.84;;;12.51;66.40
79362;BME280;68830;47.566;19.012;2024-03-22T00:06:28;100254.44;;;12.67;66.40
79362;BME280;68830;47.566;19.012;2024-03-22T00:09:29;100236.38;;;12.97;64.80
79362;BME280;68830;47.566;19.012;2024-03-22T00:12:30;100236.03;;;13.18;63.38
79362;BME280;68830;47.566;19.012;2024-03-22T00:15:31;100247.03;;;13.23;63.40
79362;BME280;68830;47.566;19.012;2024-03-22T00:18:32;100247.56;;;13.26;63.00
79362;BME280;68830;47.566;19.012;2024-03-22T00:21:34;100211.84;;;13.03;63.76
79362;BME280;68830;47.566;19.012;2024-03-22T00:24:35;100234.75;;;13.22;63.90
79362;BME280;68830;47.566;19.012;2024-03-22T00:27:37;100235.13;;;13.09;64.66
79362;BME280;68830;47.566;19.012;2024-03-22T00:30:38;100246.44;;;12.85;64.78
79362;BME280;68830;47.566;19.012;2024-03-22T00:33:39;100237.31;;;12.62;66.07
79362;BME280;68830;47.566;19.012;2024-03-22T00:36:41;100227.72;;;12.43;66.87
79362;BME280;68830;47.566;19.012;2024-03-22T00:39:43;100223.63;;;12.31;67.86
79362;BME280;68830;47.566;19.012;2024-03-22T00:42:44;100195.56;;;12.10;68.25
79362;BME280;68830;47.566;19.012;2024-03-22T00:45:46;100223.09;;;12.45;68.21
79362;BME280;68830;47.566;19.012;2024-03-22T00:48:47;100221.41;;;12.44;69.06
79362;BME280;68830;47.566;19.012;2024-03-22T00:51:49;100225.25;;;12.49;68.17
79362;BME280;68830;47.566;19.012;2024-03-22T00:54:50;100208.44;;;12.41;68.21
79362;BME280;68830;47.566;19.012;2024-03-22T00:57:52;100203.56;;;12.36;67.97
79362;BME280;68830;47.566;19.012;2024-03-22T01:00:53;100218.16;;;12.32;68.95
79362;BME280;68830;47.566;19.012;2024-03-22T01:03:54;100225.28;;;12.32;68.39
79362;BME280;68830;47.566;19.012;2024-03-22T01:06:56;100224.38;;;12.23;69.29
79362;BME280;68830;47.566;19.012;2024-03-22T01:09:57;100228.16;;;12.20;69.88
79362;BME280;68830;47.566;19.012;2024-03-22T01:12:59;100199.88;;;11.93;69.55
79362;BME280;68830;47.566;19.012;2024-03-22T01:16:01;100242.97;;;12.05;69.87
79362;BME280;68830;47.566;19.012;2024-03-22T01:19:02;100231.44;;;11.96;70.23
79362;BME280;68830;47.566;19.012;2024-03-22T01:22:04;100232.84;;;11.91;71.06
79362;BME280;68830;47.566;19.012;2024-03-22T01:25:06;100222.84;;;11.85;71.23
79362;BME280;68830;47.566;19.012;2024-03-22T01:28:08;100228.88;;;11.77;72.04
79362;BME280;68830;47.566;19.012;2024-03-22T01:31:09;100218.19;;;11.69;72.80
79362;BME280;68830;47.566;19.012;2024-03-22T01:34:10;100224.91;;;11.91;73.69
79362;BME280;68830;47.566;19.012;2024-03-22T01:37:12;100224.53;;;11.86;72.16
79362;BME280;68830;47.566;19.012;2024-03-22T01:40:13;100225.53;;;11.75;73.25
79362;BME280;68830;47.566;19.012;2024-03-22T01:43:15;100222.34;;;11.72;73.24
79362;BME280;68830;47.566;19.012;2024-03-22T01:46:16;100198.16;;;11.57;73.40
79362;BME280;68830;47.566;19.012;2024-03-22T01:49:17;100213.56;;;11.71;73.11
79362;BME280;68830;47.566;19.012;2024-03-22T01:52:19;100213.03;;;11.67;73.78
79362;BME280;68830;47.566;19.012;2024-03-22T01:55:20;100208.97;;;11.63;74.58
79362;BME280;68830;47.566;19.012;2024-03-22T01:58:22;100193.81;;;11.56;75.05
79362;BME280;68830;47.566;19.012;2024-03-22T02:01:23;100203.59;;;11.55;75.19
79362;BME280;68830;47.566;19.012;2024-03-22T02:04:43;100202.09;;;11.53;75.14
79362;BME280;68830;47.566;19.012;2024-03-22T02:07:46;100147.78;;;11.29;75.24
79362;BME280;68830;47.566;19.012;2024-03-22T02:10:47;100134.78;;;11.36;75.08
79362;BME280;68830;47.566;19.012;2024-03-22T02:13:48;100157.16;;;11.69;72.99
79362;BME280;68830;47.566;19.012;2024-03-22T02:16:50;100203.97;;;12.23;70.94
79362;BME280;68830;47.566;19.012;2024-03-22T02:19:57;100106.06;;;12.03;69.20
79362;BME280;68830;47.566;19.012;2024-03-22T02:23:06;100209.19;;;13.03;65.84
79362;BME280;68830;47.566;19.012;2024-03-22T02:26:15;100093.38;;;12.66;64.28
79362;BME280;68830;47.566;19.012;2024-03-22T02:32:36;100110.81;;;13.03;62.97
79362;BME280;68830;47.566;19.012;2024-03-22T02:35:38;100175.84;;;13.51;62.75
79362;BME280;68830;47.566;19.012;2024-03-22T02:38:39;100178.16;;;13.54;63.03
79362;BME280;68830;47.566;19.012;2024-03-22T02:41:51;100172.97;;;13.44;63.02
79362;BME280;68830;47.566;19.012;2024-03-22T02:44:58;100201.28;;;13.53;63.40
79362;BME280;68830;47.566;19.012;2024-03-22T02:48:04;100161.13;;;13.30;64.26
79362;BME280;68830;47.566;19.012;2024-03-22T02:51:05;100095.47;;;12.89;63.62
79362;BME280;68830;47.566;19.012;2024-03-22T02:54:07;100085.59;;;12.73;64.43
79362;BME280;68830;47.566;19.012;2024-03-22T02:57:16;100189.75;;;13.36;64.18
79362;BME280;68830;47.566;19.012;2024-03-22T03:00:18;100128.06;;;12.99;65.03
79362;BME280;68830;47.566;19.012;2024-03-22T03:03:19;100113.59;;;12.93;65.67
79362;BME280;68830;47.566;19.012;2024-03-22T03:06:26;100100.97;;;12.87;65.86
79362;BME280;68830;47.566;19.012;2024-03-22T03:09:27;100129.28;;;13.04;66.07
79362;BME280;68830;47.566;19.012;2024-03-22T03:12:29;100090.16;;;12.89;66.25
79362;BME280;68830;47.566;19.012;2024-03-22T03:15:36;100165.16;;;13.34;66.98
79362;BME280;68830;47.566;19.012;2024-03-22T03:18:44;100089.66;;;12.93;67.49
79362;BME280;68830;47.566;19.012;2024-03-22T03:21:45;100117.81;;;13.12;67.32
79362;BME280;68830;47.566;19.012;2024-03-22T03:24:52;100174.13;;;13.41;68.70
79362;BME280;68830;47.566;19.012;2024-03-22T03:28:03;100155.97;;;13.29;68.34
79362;BME280;68830;47.566;19.012;2024-03-22T03:31:05;100094.09;;;12.84;69.16
79362;BME280;68830;47.566;19.012;2024-03-22T03:34:06;100163.09;;;13.20;68.61
79362;BME280;68830;47.566;19.012;2024-03-22T03:37:16;100127.94;;;13.08;69.69
79362;BME280;68830;47.566;19.012;2024-03-22T03:40:26;100176.78;;;13.33;69.53
79362;BME280;68830;47.566;19.012;2024-03-22T03:43:36;100158.91;;;13.18;69.71
79362;BME280;68830;47.566;19.012;2024-03-22T03:46:46;100097.75;;;12.75;70.58
79362;BME280;68830;47.566;19.012;2024-03-22T03:49:53;100156.84;;;13.03;71.12
79362;BME280;68830;47.566;19.012;2024-03-22T03:52:54;100089.38;;;12.70;71.39
79362;BME280;68830;47.566;19.012;2024-03-22T03:55:55;100185.06;;;13.30;72.58
79362;BME280;68830;47.566;19.012;2024-03-22T03:59:05;100093.41;;;12.74;72.97
79362;BME280;68830;47.566;19.012;2024-03-22T04:02:13;100151.56;;;13.11;73.54
79362;BME280;68830;47.566;19.012;2024-03-22T04:05:15;100143.00;;;12.92;74.67
79362;BME280;68830;47.566;19.012;2024-03-22T04:08:16;100164.50;;;13.06;75.66
79362;BME280;68830;47.566;19.012;2024-03-22T04:11:23;100190.94;;;13.16;76.14
79362;BME280;68830;47.566;19.012;2024-03-22T04:14:36;100103.81;;;12.60;76.65
79362;BME280;68830;47.566;19.012;2024-03-22T04:17:43;100111.63;;;12.61;76.29
79362;BME280;68830;47.566;19.012;2024-03-22T04:20:54;100177.22;;;12.95;76.55
79362;BME280;68830;47.566;19.012;2024-03-22T04:23:55;100184.03;;;12.89;77.14
79362;BME280;68830;47.566;19.012;2024-03-22T04:26:57;100182.97;;;12.82;77.53
79362;BME280;68830;47.566;19.012;2024-03-22T04:30:02;100159.94;;;12.65;77.34
79362;BME280;68830;47.566;19.012;2024-03-22T04:33:04;100164.63;;;12.71;77.93
79362;BME280;68830;47.566;19.012;2024-03-22T04:36:06;100166.63;;;12.69;78.62
79362;BME280;68830;47.566;19.012;2024-03-22T04:39:12;100174.28;;;12.72;79.02
79362;BME280;68830;47.566;19.012;2024-03-22T04:42:14;100217.63;;;12.98;79.42
79362;BME280;68830;47.566;19.012;2024-03-22T04:45:34;100133.75;;;12.44;79.14
79362;BME280;68830;47.566;19.012;2024-03-22T04:48:35;100213.28;;;12.97;79.01
79362;BME280;68830;47.566;19.012;2024-03-22T04:51:45;100159.75;;;12.58;79.39
79362;BME280;68830;47.566;19.012;2024-03-22T04:54:52;100160.59;;;12.59;79.04
79362;BME280;68830;47.566;19.012;2024-03-22T04:57:53;100176.41;;;12.68;79.42
79362;BME280;68830;47.566;19.012;2024-03-22T05:00:59;100227.91;;;12.93;79.61
79362;BME280;68830;47.566;19.012;2024-03-22T05:04:00;100172.50;;;12.54;80.57
79362;BME280;68830;47.566;19.012;2024-03-22T05:07:01;100195.00;;;12.68;80.95
79362;BME280;68830;47.566;19.012;2024-03-22T05:10:02;100220.56;;;12.87;81.00
79362;BME280;68830;47.566;19.012;2024-03-22T05:13:13;100131.19;;;12.34;81.99
79362;BME280;68830;47.566;19.012;2024-03-22T05:16:25;100130.44;;;12.24;82.70
79362;BME280;68830;47.566;19.012;2024-03-22T05:19:35;100124.31;;;12.23;82.09
79362;BME280;68830;47.566;19.012;2024-03-22T05:22:39;100107.34;;;12.16;82.65
79362;BME280;68830;47.566;19.012;2024-03-22T05:25:40;100143.16;;;12.38;83.53
79362;BME280;68830;47.566;19.012;2024-03-22T05:28:42;100167.50;;;12.51;82.98
79362;BME280;68830;47.566;19.012;2024-03-22T05:31:51;100137.19;;;12.36;82.70
79362;BME280;68830;47.566;19.012;2024-03-22T05:34:52;100148.59;;;12.54;81.75
79362;BME280;68830;47.566;19.012;2024-03-22T05:38:03;100171.75;;;12.70;81.98
79362;BME280;68830;47.566;19.012;2024-03-22T05:41:08;100209.44;;;12.92;82.56
79362;BME280;68830;47.566;19.012;2024-03-22T05:44:09;100122.56;;;12.32;81.80
79362;BME280;68830;47.566;19.012;2024-03-22T05:47:12;100123.47;;;12.41;82.42
79362;BME280;68830;47.566;19.012;2024-03-22T05:50:13;100110.59;;;12.28;82.32
79362;BME280;68830;47.566;19.012;2024-03-22T05:53:21;100184.59;;;12.75;82.86
79362;BME280;68830;47.566;19.012;2024-03-22T05:56:22;100118.97;;;12.41;82.33
79362;BME280;68830;47.566;19.012;2024-03-22T05:59:23;100182.63;;;12.77;82.58
79362;BME280;68830;47.566;19.012;2024-03-22T06:02:36;100201.34;;;13.01;81.84
79362;BME280;68830;47.566;19.012;2024-03-22T06:05:41;100202.34;;;13.00;82.65
79362;BME280;68830;47.566;19.012;2024-03-22T06:08:48;100204.72;;;13.03;82.63
79362;BME280;68830;47.566;19.012;2024-03-22T06:11:55;100200.22;;;13.04;82.24
79362;BME280;68830;47.566;19.012;2024-03-22T06:18:07;100182.03;;;12.91;82.42
79362;BME280;68830;47.566;19.012;2024-03-22T06:21:08;100212.38;;;13.06;83.10
79362;BME280;68830;47.566;19.012;2024-03-22T06:24:09;100203.56;;;13.06;83.18
79362;BME280;68830;47.566;19.012;2024-03-22T06:27:10;100212.19;;;13.08;83.52
79362;BME280;68830;47.566;19.012;2024-03-22T06:30:12;100199.69;;;13.00;82.60
79362;BME280;68830;47.566;19.012;2024-03-22T06:33:15;100206.72;;;13.09;82.79
79362;BME280;68830;47.566;19.012;2024-03-22T06:36:15;100196.25;;;13.16;82.24
79362;BME280;68830;47.566;19.012;2024-03-22T06:39:17;100203.91;;;13.11;82.55
79362;BME280;68830;47.566;19.012;2024-03-22T06:42:18;100187.28;;;13.09;82.00
79362;BME280;68830;47.566;19.012;2024-03-22T06:45:19;100209.31;;;13.27;82.96
79362;BME280;68830;47.566;19.012;2024-03-22T06:48:22;100212.66;;;13.29;82.06
79362;BME280;68830;47.566;19.012;2024-03-22T06:51:23;100222.13;;;13.32;82.37
79362;BME280;68830;47.566;19.012;2024-03-22T06:54:25;100221.84;;;13.35;81.61
79362;BME280;68830;47.566;19.012;2024-03-22T06:57:27;100206.88;;;13.34;81.54
79362;BME280;68830;47.566;19.012;2024-03-22T07:00:28;100221.69;;;13.44;81.61
79362;BME280;68830;47.566;19.012;2024-03-22T07:03:30;100102.34;;;11.78;88.62
79362;BME280;68830;47.566;19.012;2024-03-22T07:06:32;100159.06;;;11.94;93.34
79362;BME280;68830;47.566;19.012;2024-03-22T07:09:33;100090.75;;;11.43;93.86
79362;BME280;68830;47.566;19.012;2024-03-22T07:12:35;100167.66;;;11.88;94.76
79362;BME280;68830;47.566;19.012;2024-03-22T07:15:36;100163.19;;;11.89;94.94
79362;BME280;68830;47.566;19.012;2024-03-22T07:18:39;100157.81;;;11.99;95.77
79362;BME280;68830;47.566;19.012;2024-03-22T07:21:40;100149.44;;;11.93;95.67
79362;BME280;68830;47.566;19.012;2024-03-22T07:24:41;100151.50;;;12.00;95.08
79362;BME280;68830;47.566;19.012;2024-03-22T07:31:34;100181.84;;;12.15;94.19
79362;BME280;68830;47.566;19.012;2024-03-22T07:34:34;100176.13;;;12.10;93.11
79362;BME280;68830;47.566;19.012;2024-03-22T07:37:36;100152.56;;;12.07;93.65
79362;BME280;68830;47.566;19.012;2024-03-22T07:40:38;100188.50;;;12.19;94.13
79362;BME280;68830;47.566;19.012;2024-03-22T07:43:39;100176.00;;;12.11;93.21
79362;BME280;68830;47.566;19.012;2024-03-22T07:46:41;100197.22;;;12.29;93.03
79362;BME280;68830;47.566;19.012;2024-03-22T07:49:42;100188.28;;;12.30;93.25
79362;BME280;68830;47.566;19.012;2024-03-22T07:52:44;100186.28;;;12.32;92.73
79362;BME280;68830;47.566;19.012;2024-03-22T07:55:45;100202.16;;;12.42;91.99
79362;BME280;68830;47.566;19.012;2024-03-22T07:58:46;100274.75;;;12.50;92.69
79362;BME280;68830;47.566;19.012;2024-03-22T08:01:49;100243.53;;;12.96;89.74
79362;BME280;68830;47.566;19.012;2024-03-22T08:04:50;100225.19;;;12.59;90.32
79362;BME280;68830;47.566;19.012;2024-03-22T08:07:52;100227.28;;;12.73;90.71
79362;BME280;68830;47.566;19.012;2024-03-22T08:14:18;100203.91;;;12.85;87.69
79362;BME280;68830;47.566;19.012;2024-03-22T08:17:19;100229.75;;;13.01;88.25
79362;BME280;68830;47.566;19.012;2024-03-22T08:20:20;100245.44;;;13.12;87.19
79362;BME280;68830;47.566;19.012;2024-03-22T08:23:21;100239.13;;;13.13;85.72
79362;BME280;68830;47.566;19.012;2024-03-22T08:26:23;100209.88;;;13.13;85.75
79362;BME280;68830;47.566;19.012;2024-03-22T08:29:26;100237.81;;;13.35;85.40
79362;BME280;68830;47.566;19.012;2024-03-22T08:32:27;100198.53;;;13.29;84.89
79362;BME280;68830;47.566;19.012;2024-03-22T08:35:29;100223.59;;;13.60;83.79
79362;BME280;68830;47.566;19.012;2024-03-22T08:38:29;100216.63;;;13.75;82.53
79362;BME280;68830;47.566;19.012;2024-03-22T08:41:30;100209.03;;;13.97;81.80
79362;BME280;68830;47.566;19.012;2024-03-22T08:44:33;100230.03;;;14.32;80.91
79362;BME280;68830;47.566;19.012;2024-03-22T08:47:34;100227.53;;;14.39;79.28
79362;BME280;68830;47.566;19.012;2024-03-22T08:50:35;100219.41;;;14.49;78.61
79362;BME280;68830;47.566;19.012;2024-03-22T08:53:36;100215.56;;;14.68;78.04
79362;BME280;68830;47.566;19.012;2024-03-22T08:56:38;100224.41;;;14.52;76.54
79362;BME280;68830;47.566;19.012;2024-03-22T08:59:41;100222.41;;;14.54;77.87
79362;BME280;68830;47.566;19.012;2024-03-22T09:02:42;100220.44;;;14.48;77.10
79362;BME280;68830;47.566;19.012;2024-03-22T09:05:43;100194.94;;;14.61;77.53
79362;BME280;68830;47.566;19.012;2024-03-22T09:08:44;100202.75;;;14.30;77.06
79362;BME280;68830;47.566;19.012;2024-03-22T09:11:45;100221.25;;;14.73;78.44
79362;BME280;68830;47.566;19.012;2024-03-22T09:14:48;100208.75;;;14.49;77.03
79362;BME280;68830;47.566;19.012;2024-03-22T09:17:51;100200.09;;;14.63;76.44
79362;BME280;68830;47.566;19.012;2024-03-22T09:20:52;100212.53;;;14.95;76.31
79362;BME280;68830;47.566;19.012;2024-03-22T09:23:54;100220.78;;;15.24;74.37
79362;BME280;68830;47.566;19.012;2024-03-22T09:26:55;100213.03;;;14.90;75.25
79362;BME280;68830;47.566;19.012;2024-03-22T09:29:58;100203.00;;;15.01;75.82
79362;BME280;68830;47.566;19.012;2024-03-22T09:32:59;100208.75;;;15.29;74.25
79362;BME280;68830;47.566;19.012;2024-03-22T09:36:00;100192.63;;;15.14;74.80
79362;BME280;68830;47.566;19.012;2024-03-22T09:39:02;100182.22;;;15.35;74.30
79362;BME280;68830;47.566;19.012;2024-03-22T09:42:05;100198.84;;;15.45;74.12
79362;BME280;68830;47.566;19.012;2024-03-22T09:45:09;100202.47;;;15.13;74.73
79362;BME280;68830;47.566;19.012;2024-03-22T09:48:13;100156.72;;;14.85;75.64
79362;BME280;68830;47.566;19.012;2024-03-22T09:51:15;100195.22;;;15.30;75.30
79362;BME280;68830;47.566;19.012;2024-03-22T09:54:17;100173.66;;;15.01;75.31
79362;BME280;68830;47.566;19.012;2024-03-22T09:57:19;100174.25;;;15.27;74.70
79362;BME280;68830;47.566;19.012;2024-03-22T10:00:23;100159.06;;;15.28;72.93
79362;BME280;68830;47.566;19.012;2024-03-22T10:03:26;100171.75;;;15.57;72.21
79362;BME280;68830;47.566;19.012;2024-03-22T10:06:29;100174.09;;;15.60;71.11
79362;BME280;68830;47.566;19.012;2024-03-22T10:09:30;100151.59;;;15.54;71.15
79362;BME280;68830;47.566;19.012;2024-03-22T10:12:32;100165.22;;;15.67;70.44
79362;BME280;68830;47.566;19.012;2024-03-22T10:15:35;100154.66;;;15.74;71.02
79362;BME280;68830;47.566;19.012;2024-03-22T10:18:36;100151.47;;;16.01;69.81
79362;BME280;68830;47.566;19.012;2024-03-22T10:21:37;100153.69;;;15.98;69.34
79362;BME280;68830;47.566;19.012;2024-03-22T10:24:38;100157.00;;;16.00;68.99
79362;BME280;68830;47.566;19.012;2024-03-22T10:27:40;100143.63;;;16.00;69.14
79362;BME280;68830;47.566;19.012;2024-03-22T10:30:43;100152.94;;;16.27;67.91
79362;BME280;68830;47.566;19.012;2024-03-22T10:33:46;100150.03;;;16.13;67.67
79362;BME280;68830;47.566;19.012;2024-03-22T10:36:47;100158.47;;;16.25;67.64
79362;BME280;68830;47.566;19.012;2024-03-22T10:39:50;100144.97;;;16.41;67.85
79362;BME280;68830;47.566;19.012;2024-03-22T10:42:53;100153.06;;;16.48;66.07
79362;BME280;68830;47.566;19.012;2024-03-22T10:45:58;100158.22;;;16.50;66.16
79362;BME280;68830;47.566;19.012;2024-03-22T10:49:02;100163.84;;;16.40;66.17
79362;BME280;68830;47.566;19.012;2024-03-22T10:52:07;100143.66;;;16.52;65.81
79362;BME280;68830;47.566;19.012;2024-03-22T10:55:12;100145.25;;;16.61;66.58
79362;BME280;68830;47.566;19.012;2024-03-22T10:58:15;100154.06;;;16.70;63.58
79362;BME280;68830;47.566;19.012;2024-03-22T11:01:25;100089.91;;;16.32;65.67
79362;BME280;68830;47.566;19.012;2024-03-22T11:04:30;100130.78;;;16.18;66.72
79362;BME280;68830;47.566;19.012;2024-03-22T11:07:31;100108.38;;;16.04;65.23
79362;BME280;68830;47.566;19.012;2024-03-22T11:10:34;100120.66;;;16.13;67.30
79362;BME280;68830;47.566;19.012;2024-03-22T11:13:35;100105.88;;;16.40;66.61
79362;BME280;68830;47.566;19.012;2024-03-22T11:16:39;100089.94;;;15.95;67.87
79362;BME280;68830;47.566;19.012;2024-03-22T11:19:42;100089.84;;;16.03;67.94
79362;BME280;68830;47.566;19.012;2024-03-22T11:22:44;100085.16;;;16.05;67.02
79362;BME280;68830;47.566;19.012;2024-03-22T11:25:45;100075.31;;;16.20;64.59
79362;BME280;68830;47.566;19.012;2024-03-22T11:28:47;100067.78;;;16.09;63.75
79362;BME280;68830;47.566;19.012;2024-03-22T11:31:49;100115.00;;;16.46;62.83
79362;BME280;68830;47.566;19.012;2024-03-22T11:34:50;100117.41;;;16.56;62.31
79362;BME280;68830;47.566;19.012;2024-03-22T11:37:52;100113.28;;;16.97;57.29
79362;BME280;68830;47.566;19.012;2024-03-22T11:40:54;100101.09;;;16.95;57.28
79362;BME280;68830;47.566;19.012;2024-03-22T11:43:58;100104.03;;;17.00;58.18
79362;BME280;68830;47.566;19.012;2024-03-22T11:47:03;100085.31;;;17.00;54.87
79362;BME280;68830;47.566;19.012;2024-03-22T11:50:04;100107.16;;;17.54;52.84
79362;BME280;68830;47.566;19.012;2024-03-22T11:53:06;100097.84;;;17.14;52.46
79362;BME280;68830;47.566;19.012;2024-03-22T11:56:08;100102.03;;;17.38;53.71
79362;BME280;68830;47.566;19.012;2024-03-22T11:59:09;100091.13;;;17.18;54.16
79362;BME280;68830;47.566;19.012;2024-03-22T12:02:11;100104.41;;;17.12;53.89
79362;BME280;68830;47.566;19.012;2024-03-22T12:05:13;100110.38;;;17.14;55.33
79362;BME280;68830;47.566;19.012;2024-03-22T12:08:15;100109.50;;;16.92;53.81
79362;BME280;68830;47.566;19.012;2024-03-22T12:11:16;100059.91;;;16.75;55.21
79362;BME280;68830;47.566;19.012;2024-03-22T12:14:17;100075.81;;;16.53;56.65
79362;BME280;68830;47.566;19.012;2024-03-22T12:17:19;100062.19;;;16.63;56.97
79362;BME280;68830;47.566;19.012;2024-03-22T12:20:21;100060.72;;;16.60;56.64
79362;BME280;68830;47.566;19.012;2024-03-22T12:23:22;100074.28;;;16.73;56.05
79362;BME280;68830;47.566;19.012;2024-03-22T12:26:24;100066.91;;;16.76;56.33
79362;BME280;68830;47.566;19.012;2024-03-22T12:29:25;100070.66;;;16.66;57.05
79362;BME280;68830;47.566;19.012;2024-03-22T12:32:27;100054.81;;;16.50;55.87
79362;BME280;68830;47.566;19.012;2024-03-22T12:35:29;100055.47;;;16.82;55.36
79362;BME280;68830;47.566;19.012;2024-03-22T12:38:34;99984.38;;;16.58;55.37
79362;BME280;68830;47.566;19.012;2024-03-22T12:41:35;100014.81;;;16.42;55.57
79362;BME280;68830;47.566;19.012;2024-03-22T12:44:36;100060.16;;;16.80;55.50
79362;BME280;68830;47.566;19.012;2024-03-22T12:47:38;100056.56;;;16.87;56.51
79362;BME280;68830;47.566;19.012;2024-03-22T12:50:39;100038.56;;;16.66;55.69
79362;BME280;68830;47.566;19.012;2024-03-22T12:53:41;100029.44;;;16.61;56.57
79362;BME280;68830;47.566;19.012;2024-03-22T12:56:42;100032.31;;;16.44;56.50
79362;BME280;68830;47.566;19.012;2024-03-22T12:59:43;100033.34;;;16.43;57.30
79362;BME280;68830;47.566;19.012;2024-03-22T13:02:45;100028.16;;;16.57;56.41
79362;BME280;68830;47.566;19.012;2024-03-22T13:05:47;100030.66;;;16.58;56.52
79362;BME280;68830;47.566;19.012;2024-03-22T13:08:48;100015.00;;;16.26;56.65
79362;BME280;68830;47.566;19.012;2024-03-22T13:11:49;100008.97;;;16.53;57.50
79362;BME280;68830;47.566;19.012;2024-03-22T13:14:50;100007.25;;;16.46;56.52
79362;BME280;68830;47.566;19.012;2024-03-22T13:17:54;99993.50;;;16.34;57.16
79362;BME280;68830;47.566;19.012;2024-03-22T13:20:56;100001.72;;;16.47;57.46
79362;BME280;68830;47.566;19.012;2024-03-22T13:23:58;99997.38;;;16.61;55.84
79362;BME280;68830;47.566;19.012;2024-03-22T13:26:59;99990.56;;;16.43;54.75
79362;BME280;68830;47.566;19.012;2024-03-22T13:30:00;99983.47;;;16.36;56.15
79362;BME280;68830;47.566;19.012;2024-03-22T13:33:03;99976.25;;;16.51;56.05
79362;BME280;68830;47.566;19.012;2024-03-22T13:36:04;99984.38;;;16.72;56.18
79362;BME280;68830;47.566;19.012;2024-03-22T13:39:06;99986.78;;;16.67;55.83
79362;BME280;68830;47.566;19.012;2024-03-22T13:42:07;99944.38;;;16.35;55.70
79362;BME280;68830;47.566;19.012;2024-03-22T13:45:09;99972.41;;;16.39;56.13
79362;BME280;68830;47.566;19.012;2024-03-22T13:48:12;99965.09;;;16.62;55.74
79362;BME280;68830;47.566;19.012;2024-03-22T13:51:16;99966.56;;;16.80;55.00
79362;BME280;68830;47.566;19.012;2024-03-22T13:54:17;99934.41;;;16.73;53.75
79362;BME280;68830;47.566;19.012;2024-03-22T13:57:18;99955.47;;;16.83;52.46
79362;BME280;68830;47.566;19.012;2024-03-22T14:00:19;99966.50;;;16.58;52.83
79362;BME280;68830;47.566;19.012;2024-03-22T14:03:21;99972.22;;;16.70;52.81
79362;BME280;68830;47.566;19.012;2024-03-22T14:06:23;99942.97;;;16.54;52.48
79362;BME280;68830;47.566;19.012;2024-03-22T14:09:24;99959.00;;;16.54;52.38
79362;BME280;68830;47.566;19.012;2024-03-22T14:12:26;99958.03;;;16.69;53.20
79362;BME280;68830;47.566;19.012;2024-03-22T14:15:27;99948.78;;;16.72;53.22
79362;BME280;68830;47.566;19.012;2024-03-22T14:18:33;99947.38;;;16.76;52.52
79362;BME280;68830;47.566;19.012;2024-03-22T14:21:37;99951.34;;;16.80;52.72
79362;BME280;68830;47.566;19.012;2024-03-22T14:24:39;99926.25;;;16.66;52.86
79362;BME280;68830;47.566;19.012;2024-03-22T14:27:41;99945.16;;;16.80;52.99
79362;BME280;68830;47.566;19.012;2024-03-22T14:30:45;99929.50;;;16.62;52.21
79362;BME280;68830;47.566;19.012;2024-03-22T14:33:48;99877.53;;;16.50;51.65
79362;BME280;68830;47.566;19.012;2024-03-22T14:36:49;99926.44;;;16.80;51.80
79362;BME280;68830;47.566;19.012;2024-03-22T14:39:51;99899.75;;;16.50;53.06
79362;BME280;68830;47.566;19.012;2024-03-22T14:42:52;99917.00;;;16.48;53.11
79362;BME280;68830;47.566;19.012;2024-03-22T14:45:53;99917.00;;;16.48;52.40
79362;BME280;68830;47.566;19.012;2024-03-22T14:48:56;99921.69;;;16.46;51.91
79362;BME280;68830;47.566;19.012;2024-03-22T14:51:57;99881.75;;;16.08;52.10
79362;BME280;68830;47.566;19.012;2024-03-22T14:54:59;99910.78;;;16.26;53.50
79362;BME280;68830;47.566;19.012;2024-03-22T14:57:59;99891.59;;;16.07;53.55
79362;BME280;68830;47.566;19.012;2024-03-22T15:01:02;99910.78;;;16.11;54.43
79362;BME280;68830;47.566;19.012;2024-03-22T15:04:05;99909.22;;;16.17;54.11
79362;BME280;68830;47.566;19.012;2024-03-22T15:07:06;99864.75;;;15.94;54.11
79362;BME280;68830;47.566;19.012;2024-03-22T15:10:08;99887.56;;;16.11;53.46
79362;BME280;68830;47.566;19.012;2024-03-22T15:13:09;99898.63;;;16.08;53.40
79362;BME280;68830;47.566;19.012;2024-03-22T15:16:11;99907.63;;;16.07;52.83
79362;BME280;68830;47.566;19.012;2024-03-22T15:19:14;99891.59;;;15.93;52.10
79362;BME280;68830;47.566;19.012;2024-03-22T15:22:15;99893.38;;;16.00;52.36
79362;BME280;68830;47.566;19.012;2024-03-22T15:25:20;99895.31;;;15.92;52.33
79362;BME280;68830;47.566;19.012;2024-03-22T15:28:21;99898.06;;;15.83;50.79
79362;BME280;68830;47.566;19.012;2024-03-22T15:31:22;99885.28;;;15.64;50.69
79362;BME280;68830;47.566;19.012;2024-03-22T15:34:25;99887.56;;;15.67;50.50
79362;BME280;68830;47.566;19.012;2024-03-22T15:37:26;99888.81;;;15.57;51.13
79362;BME280;68830;47.566;19.012;2024-03-22T15:40:27;99884.31;;;15.57;52.91
79362;BME280;68830;47.566;19.012;2024-03-22T15:43:29;99896.91;;;15.48;52.96
79362;BME280;68830;47.566;19.012;2024-03-22T15:46:30;99888.78;;;15.42;53.33
79362;BME280;68830;47.566;19.012;2024-03-22T15:49:33;99883.06;;;15.30;54.31
79362;BME280;68830;47.566;19.012;2024-03-22T15:52:34;99891.41;;;15.27;55.21
79362;BME280;68830;47.566;19.012;2024-03-22T15:55:35;99894.34;;;15.17;56.03
79362;BME280;68830;47.566;19.012;2024-03-22T15:58:36;99880.63;;;15.06;56.14